createdAt,value
2017-09-19T00:00:25.626Z,0.98
2017-09-19T00:02:55.221Z,1.05
2017-09-19T00:05:26.513Z,1.17
2017-09-19T00:07:56.086Z,1.30
2017-09-19T00:10:25.416Z,1.30
2017-09-19T00:12:54.739Z,1.20
2017-09-19T00:15:24.568Z,1.60
2017-09-19T00:17:54.347Z,1.40
2017-09-19T00:20:23.647Z,1.30
2017-09-19T00:22:52.962Z,1.12
2017-09-19T00:25:22.310Z,1.10
2017-09-19T00:27:51.625Z,1.10
2017-09-19T00:30:21.393Z,1.40
2017-09-19T00:32:50.734Z,1.20
2017-09-19T00:35:20.049Z,1.40
2017-09-19T00:37:49.859Z,1.30
2017-09-19T00:40:19.971Z,1.30
2017-09-19T00:42:50.088Z,1.45
2017-09-19T00:45:20.524Z,1.50
2017-09-19T00:47:49.813Z,1.30
2017-09-19T00:50:19.144Z,1.20
2017-09-19T00:52:48.515Z,1.30
2017-09-19T00:55:17.831Z,1.50
2017-09-19T00:57:48.219Z,1.07
2017-09-19T01:00:17.551Z,1.27
2017-09-19T01:02:47.234Z,1.20
2017-09-19T01:05:16.605Z,1.20
2017-09-19T01:07:45.926Z,1.10
2017-09-19T01:10:15.709Z,1.25
2017-09-19T01:12:50.505Z,1.55
2017-09-19T01:15:21.057Z,1.67
2017-09-19T01:17:50.365Z,1.50
2017-09-19T01:20:19.962Z,1.40
2017-09-19T01:22:49.293Z,1.55
2017-09-19T01:25:19.438Z,1.25
2017-09-19T01:27:51.641Z,1.20
2017-09-19T01:30:21.307Z,1.20
2017-09-19T01:32:50.790Z,1.30
2017-09-19T01:35:20.098Z,1.30
2017-09-19T01:37:49.702Z,1.40
2017-09-19T01:40:19.060Z,1.50
2017-09-19T01:42:48.535Z,1.20
2017-09-19T01:45:17.841Z,1.50
2017-09-19T01:47:47.270Z,1.20
2017-09-19T01:50:17.678Z,1.40
2017-09-19T01:52:47.169Z,1.12
2017-09-19T01:55:16.518Z,1.47
2017-09-19T01:57:45.867Z,1.25
2017-09-19T02:00:15.218Z,1.60
2017-09-19T02:02:44.937Z,1.30
2017-09-19T02:05:14.305Z,1.50
2017-09-19T02:07:43.598Z,1.30
2017-09-19T02:10:13.295Z,1.30
2017-09-19T02:12:43.414Z,1.40
2017-09-19T02:15:12.727Z,1.20
2017-09-19T02:17:43.602Z,1.63
2017-09-19T02:20:12.977Z,0.97
2017-09-19T02:22:42.645Z,1.20
2017-09-19T02:25:11.951Z,1.20
2017-09-19T02:27:41.272Z,1.30
2017-09-19T02:30:11.010Z,1.30
2017-09-19T02:32:40.364Z,1.30
2017-09-19T02:35:09.746Z,1.37
2017-09-19T02:37:39.017Z,1.20
2017-09-19T02:40:08.578Z,1.30
2017-09-19T02:42:38.202Z,1.40
2017-09-19T02:45:09.324Z,1.70
2017-09-19T02:47:38.666Z,1.80
2017-09-19T02:50:07.994Z,1.30
2017-09-19T02:52:37.422Z,1.40
2017-09-19T02:55:07.212Z,1.20
2017-09-19T02:57:36.557Z,1.30
2017-09-19T03:00:06.178Z,1.30
2017-09-19T03:02:35.939Z,1.40
2017-09-19T03:05:05.260Z,1.33
2017-09-19T03:07:35.422Z,1.40
2017-09-19T03:10:05.698Z,1.20
2017-09-19T03:12:35.055Z,1.20
2017-09-19T03:15:05.553Z,1.67
2017-09-19T03:17:35.397Z,1.55
2017-09-19T03:20:05.011Z,1.30
2017-09-19T03:22:35.367Z,1.60
2017-09-19T03:25:04.809Z,1.20
2017-09-19T03:27:34.968Z,1.00
2017-09-19T03:30:04.283Z,1.20
2017-09-19T03:32:33.641Z,1.00
2017-09-19T03:35:03.474Z,1.10
2017-09-19T03:37:32.879Z,1.30
2017-09-19T03:40:05.178Z,1.10
2017-09-19T03:42:34.474Z,1.20
2017-09-19T03:45:05.762Z,1.30
2017-09-19T03:47:37.000Z,1.15
2017-09-19T03:50:09.724Z,0.70
2017-09-19T03:52:39.457Z,0.80
2017-09-19T03:55:08.810Z,0.90
2017-09-19T03:57:39.650Z,1.00
2017-09-19T04:00:09.429Z,1.30
2017-09-19T04:02:38.742Z,1.12
2017-09-19T04:05:29.530Z,1.23
2017-09-19T04:07:59.302Z,1.20
2017-09-19T04:10:28.626Z,1.00
2017-09-19T04:12:58.260Z,1.05
2017-09-19T04:15:27.618Z,1.00
2017-09-19T04:17:56.974Z,0.60
2017-09-19T04:20:26.828Z,0.80
2017-09-19T04:22:56.309Z,0.80
2017-09-19T04:25:25.653Z,0.90
2017-09-19T04:27:55.005Z,1.00
2017-09-19T04:30:24.338Z,1.00
2017-09-19T04:32:54.082Z,1.20
2017-09-19T04:35:24.093Z,0.80
2017-09-19T04:37:53.750Z,0.70
2017-09-19T04:40:35.336Z,0.68
2017-09-19T04:43:04.902Z,1.00
2017-09-19T04:45:34.246Z,0.80
2017-09-19T04:48:03.633Z,1.05
2017-09-19T04:50:32.944Z,1.20
2017-09-19T04:53:04.094Z,0.73
2017-09-19T04:55:33.427Z,0.80
2017-09-19T04:58:09.498Z,1.08
2017-09-19T05:00:38.879Z,0.98
2017-09-19T05:15:40.040Z,1.08
2017-09-19T05:18:09.585Z,0.90
2017-09-19T05:20:39.125Z,1.45
2017-09-19T05:23:08.967Z,1.80
2017-09-19T05:25:39.605Z,1.60
2017-09-19T05:28:09.159Z,1.70
2017-09-19T05:30:38.772Z,1.40
2017-09-19T05:33:08.743Z,0.87
2017-09-19T05:35:39.576Z,1.00
2017-09-19T05:38:09.926Z,1.00
2017-09-19T05:40:40.189Z,0.93
2017-09-19T05:43:10.526Z,1.50
2017-09-19T05:45:40.086Z,1.00
2017-09-19T05:48:09.917Z,0.90
2017-09-19T05:50:39.553Z,2.42
2017-09-19T05:53:09.153Z,2.10
2017-09-19T05:55:39.313Z,2.40
2017-09-19T05:58:08.923Z,1.70
2017-09-19T06:00:38.583Z,1.10
2017-09-19T06:03:09.311Z,1.12
2017-09-19T06:05:39.038Z,1.00
2017-09-19T06:08:09.359Z,1.10
2017-09-19T06:10:39.271Z,1.00
2017-09-19T06:13:08.811Z,1.10
2017-09-19T06:15:39.135Z,1.30
2017-09-19T06:18:09.032Z,1.70
2017-09-19T06:20:38.579Z,1.60
2017-09-19T06:23:08.155Z,1.00
2017-09-19T06:25:38.733Z,1.40
2017-09-19T06:28:08.466Z,2.47
2017-09-19T06:30:38.067Z,2.50
2017-09-19T06:33:07.972Z,1.87
2017-09-19T06:35:37.643Z,1.00
2017-09-19T06:38:07.331Z,1.30
2017-09-19T06:40:37.727Z,1.37
2017-09-19T06:43:07.495Z,1.10
2017-09-19T06:45:37.079Z,1.48
2017-09-19T06:48:07.523Z,1.00
2017-09-19T06:50:38.197Z,1.10
2017-09-19T06:53:07.882Z,0.93
2017-09-19T06:55:37.470Z,1.20
2017-09-19T06:58:08.075Z,1.30
2017-09-19T07:00:37.745Z,1.48
2017-09-19T07:03:07.385Z,1.40
2017-09-19T07:05:38.000Z,1.33
2017-09-19T07:08:07.615Z,1.70
2017-09-19T07:10:37.167Z,2.30
2017-09-19T07:13:07.880Z,1.70
2017-09-19T07:15:38.237Z,1.30
2017-09-19T07:18:07.755Z,1.30
2017-09-19T07:20:37.344Z,1.20
2017-09-19T07:23:07.665Z,1.50
2017-09-19T07:25:37.508Z,2.70
2017-09-19T07:28:07.419Z,2.30
2017-09-19T07:30:37.036Z,1.70
2017-09-19T07:33:06.880Z,1.40
2017-09-19T07:35:36.682Z,1.35
2017-09-19T07:38:06.351Z,1.05
2017-09-19T07:40:36.729Z,0.85
2017-09-19T07:43:07.103Z,1.30
2017-09-19T07:45:36.718Z,1.27
2017-09-19T07:48:06.345Z,1.40
2017-09-19T07:50:35.892Z,1.30
2017-09-19T07:53:06.294Z,0.70
2017-09-19T07:55:35.891Z,1.05
2017-09-19T07:58:05.865Z,0.97
2017-09-19T08:00:35.460Z,1.65
2017-09-19T08:03:20.500Z,1.50
2017-09-19T08:05:51.458Z,0.80
2017-09-19T08:08:21.606Z,0.90
2017-09-19T08:10:52.234Z,1.03
2017-09-19T08:13:31.635Z,1.00
2017-09-19T08:16:02.913Z,1.50
2017-09-19T08:18:48.969Z,1.10
2017-09-19T08:21:19.551Z,1.10
2017-09-19T08:23:51.268Z,0.70
2017-09-19T08:26:21.072Z,0.68
2017-09-19T08:28:52.819Z,0.70
2017-09-19T08:31:28.506Z,0.73
2017-09-19T08:34:01.705Z,0.80
2017-09-19T08:36:33.938Z,0.70
2017-09-19T08:39:06.533Z,0.70
2017-09-19T08:41:36.537Z,1.05
2017-09-19T08:44:09.626Z,1.00
2017-09-19T08:46:39.232Z,0.90
2017-09-19T08:49:08.940Z,1.00
2017-09-19T08:51:54.445Z,1.00
2017-09-19T08:54:24.356Z,1.12
2017-09-19T08:57:04.224Z,1.20
2017-09-19T08:59:36.853Z,1.20
2017-09-19T09:02:08.802Z,1.15
2017-09-19T09:04:39.945Z,1.20
2017-09-19T09:07:10.523Z,1.37
2017-09-19T09:09:42.271Z,0.70
2017-09-19T09:12:14.964Z,0.80
2017-09-19T09:14:45.340Z,0.80
2017-09-19T09:17:15.764Z,0.80
2017-09-19T09:19:47.572Z,0.95
2017-09-19T09:22:18.221Z,1.05
2017-09-19T09:24:48.169Z,1.00
2017-09-19T09:27:17.874Z,1.30
2017-09-19T09:29:56.064Z,0.70
2017-09-19T09:32:26.554Z,1.00
2017-09-19T09:34:56.437Z,0.70
2017-09-19T09:37:26.881Z,0.90
2017-09-19T09:40:01.728Z,1.00
2017-09-19T09:42:32.526Z,0.90
2017-09-19T09:45:02.814Z,1.00
2017-09-19T09:47:32.672Z,0.80
2017-09-19T09:50:03.201Z,1.05
2017-09-19T09:52:34.580Z,0.90
2017-09-19T09:55:07.788Z,0.80
2017-09-19T09:57:53.009Z,1.00
2017-09-19T10:00:23.504Z,1.10
2017-09-19T10:02:53.337Z,1.20
2017-09-19T10:05:23.705Z,0.85
2017-09-19T10:08:57.836Z,0.60
2017-09-19T10:11:27.660Z,1.40
2017-09-19T10:13:57.498Z,1.20
2017-09-19T10:16:27.088Z,1.20
2017-09-19T10:18:56.704Z,1.00
2017-09-19T10:21:26.570Z,1.30
2017-09-19T10:23:56.244Z,1.40
2017-09-19T10:26:25.960Z,1.20
2017-09-19T10:28:55.967Z,1.10
2017-09-19T10:31:25.549Z,1.20
2017-09-19T10:33:55.975Z,1.10
2017-09-19T10:36:25.843Z,1.30
2017-09-19T10:38:55.424Z,1.00
2017-09-19T10:41:25.004Z,0.90
2017-09-19T10:43:54.868Z,1.10
2017-09-19T10:46:24.404Z,1.08
2017-09-19T10:48:54.163Z,1.00
2017-09-19T10:51:25.142Z,1.20
2017-09-19T10:53:54.916Z,1.10
2017-09-19T10:56:24.479Z,1.20
2017-09-19T10:58:54.304Z,1.02
2017-09-19T11:01:23.955Z,1.10
2017-09-19T11:03:55.639Z,1.10
2017-09-19T11:06:26.299Z,1.20
2017-09-19T11:08:56.690Z,1.02
2017-09-19T11:11:26.236Z,1.00
2017-09-19T11:13:56.464Z,1.40
2017-09-19T11:16:26.836Z,1.40
2017-09-19T11:18:56.407Z,1.05
2017-09-19T11:21:26.327Z,1.50
2017-09-19T11:23:55.879Z,0.90
2017-09-19T11:26:26.237Z,1.48
2017-09-19T11:28:56.799Z,1.27
2017-09-19T11:31:26.318Z,1.70
2017-09-19T11:33:57.068Z,1.00
2017-09-19T11:36:27.394Z,1.40
2017-09-19T11:38:57.140Z,1.63
2017-09-19T11:41:27.539Z,1.30
2017-09-19T11:43:57.294Z,1.67
2017-09-19T11:46:27.774Z,1.40
2017-09-19T11:48:57.907Z,2.10
2017-09-19T11:51:28.207Z,1.95
2017-09-19T11:53:57.833Z,1.80
2017-09-19T11:56:27.777Z,1.75
2017-09-19T11:58:57.421Z,2.53
2017-09-19T12:01:27.035Z,2.20
2017-09-19T12:03:57.463Z,2.10
2017-09-19T12:06:27.892Z,2.37
2017-09-19T12:08:57.756Z,2.20
2017-09-19T12:11:28.249Z,2.20
2017-09-19T12:13:57.772Z,2.28
2017-09-19T12:16:28.660Z,1.62
2017-09-19T12:18:59.154Z,2.20
2017-09-19T12:21:29.476Z,2.67
2017-09-19T12:23:59.077Z,2.15
2017-09-19T12:26:30.456Z,2.10
2017-09-19T12:29:00.370Z,2.20
2017-09-19T12:31:29.992Z,2.05
2017-09-19T12:33:59.593Z,2.20
2017-09-19T12:36:29.479Z,2.43
2017-09-19T12:38:59.141Z,2.22
2017-09-19T12:41:28.719Z,2.10
2017-09-19T12:43:58.294Z,2.20
2017-09-19T12:46:28.599Z,2.73
2017-09-19T12:48:58.568Z,2.30
2017-09-19T12:51:40.105Z,2.22
2017-09-19T12:54:11.403Z,2.10
2017-09-19T12:56:40.979Z,2.20
2017-09-19T12:59:11.390Z,2.00
2017-09-19T13:01:42.037Z,3.03
2017-09-19T13:04:12.371Z,4.00
2017-09-19T13:06:41.984Z,3.13
2017-09-19T13:09:11.726Z,3.40
2017-09-19T13:11:41.326Z,1.70
2017-09-19T13:14:10.928Z,1.37
2017-09-19T13:16:40.490Z,1.20
2017-09-19T13:19:11.162Z,1.33
2017-09-19T13:21:40.715Z,1.30
2017-09-19T13:24:12.810Z,1.40
2017-09-19T13:26:42.818Z,1.37
2017-09-19T13:29:13.336Z,1.70
2017-09-19T13:33:50.616Z,1.60
2017-09-19T13:36:20.506Z,1.90
2017-09-19T13:38:50.114Z,1.90
2017-09-19T13:41:19.857Z,2.15
2017-09-19T13:43:50.307Z,2.35
2017-09-19T13:46:20.965Z,3.00
2017-09-19T13:48:51.426Z,3.60
2017-09-19T13:51:21.114Z,3.10
2017-09-19T13:53:50.771Z,2.97
2017-09-19T13:56:20.387Z,2.67
2017-09-19T13:58:49.984Z,2.75
2017-09-19T14:01:19.572Z,3.45
2017-09-19T14:03:53.434Z,4.10
2017-09-19T14:06:24.077Z,2.70
2017-09-19T14:08:53.622Z,2.13
2017-09-19T14:11:23.483Z,2.50
2017-09-19T14:13:53.913Z,1.93
2017-09-19T14:16:23.523Z,2.80
2017-09-19T14:18:53.678Z,2.10
2017-09-19T14:21:24.770Z,1.70
2017-09-19T14:23:54.348Z,1.73
2017-09-19T14:26:24.852Z,1.30
2017-09-19T14:28:54.514Z,2.27
2017-09-19T14:31:24.504Z,2.90
2017-09-19T14:33:54.256Z,2.60
2017-09-19T14:36:23.799Z,2.95
2017-09-19T14:38:53.369Z,2.60
2017-09-19T14:41:22.927Z,1.98
2017-09-19T14:43:57.479Z,1.80
2017-09-19T14:46:27.870Z,2.30
2017-09-19T14:48:57.649Z,1.80
2017-09-19T14:51:27.265Z,1.90
2017-09-19T14:53:56.893Z,5.10
2017-09-19T14:56:26.585Z,6.27
2017-09-19T14:58:56.216Z,4.70
2017-09-19T15:01:26.915Z,2.85
2017-09-19T15:03:57.324Z,2.60
2017-09-19T15:06:27.055Z,2.83
2017-09-19T15:08:56.779Z,2.87
2017-09-19T15:11:26.484Z,3.83
2017-09-19T15:13:56.101Z,2.70
2017-09-19T15:16:25.956Z,2.50
2017-09-19T15:18:56.427Z,2.62
2017-09-19T15:21:26.478Z,3.30
2017-09-19T15:23:56.602Z,3.10
2017-09-19T15:26:26.303Z,3.10
2017-09-19T15:28:57.163Z,2.80
2017-09-19T15:31:27.971Z,2.60
2017-09-19T15:33:57.563Z,2.30
2017-09-19T15:36:27.191Z,2.80
2017-09-19T15:38:57.177Z,2.80
2017-09-19T15:41:26.740Z,3.40
2017-09-19T15:43:56.502Z,4.60
2017-09-19T15:46:26.487Z,5.62
2017-09-19T15:48:56.088Z,4.65
2017-09-19T15:51:41.992Z,3.90
2017-09-19T15:54:11.888Z,3.92
2017-09-19T15:56:41.688Z,4.35
2017-09-19T15:59:11.309Z,3.30
2017-09-19T16:01:41.873Z,3.72
2017-09-19T16:04:11.377Z,4.40
2017-09-19T16:06:40.967Z,4.70
2017-09-19T16:09:10.827Z,4.18
2017-09-19T16:11:40.363Z,2.50
2017-09-19T16:14:09.910Z,2.08
2017-09-19T16:16:40.014Z,2.80
2017-09-19T16:19:11.045Z,3.40
2017-09-19T16:21:40.591Z,2.20
2017-09-19T16:24:10.624Z,3.20
2017-09-19T16:26:40.387Z,3.10
2017-09-19T16:29:10.126Z,3.20
2017-09-19T16:31:40.922Z,2.93
2017-09-19T16:34:11.400Z,3.70
2017-09-19T16:36:41.059Z,3.15
2017-09-19T16:39:13.587Z,3.30
2017-09-19T16:41:43.274Z,4.50
2017-09-19T16:44:13.171Z,4.80
2017-09-19T16:46:42.782Z,5.80
2017-09-19T16:49:12.465Z,5.20
2017-09-19T16:51:42.986Z,5.50
2017-09-19T16:54:13.400Z,4.30
2017-09-19T16:56:44.146Z,3.90
2017-09-19T16:59:14.446Z,4.03
2017-09-19T17:01:44.063Z,4.78
2017-09-19T17:04:14.017Z,4.62
2017-09-19T17:06:43.915Z,3.93
2017-09-19T17:09:13.679Z,3.45
2017-09-19T17:11:43.430Z,3.50
2017-09-19T17:14:13.300Z,4.32
2017-09-19T17:16:43.872Z,2.70
2017-09-19T17:19:14.145Z,3.55
2017-09-19T17:21:44.228Z,3.00
2017-09-19T17:24:14.562Z,3.28
2017-09-19T17:26:45.476Z,3.40
2017-09-19T17:29:15.725Z,3.08
2017-09-19T17:31:46.014Z,3.80
2017-09-19T17:34:16.136Z,2.70
2017-09-19T17:36:46.513Z,1.90
2017-09-19T17:39:17.030Z,2.17
2017-09-19T17:41:48.542Z,2.60
2017-09-19T17:44:18.783Z,2.30
2017-09-19T17:46:48.996Z,1.50
2017-09-19T17:49:19.555Z,1.80
2017-09-19T17:51:50.735Z,1.90
2017-09-19T17:54:22.014Z,2.37
2017-09-19T17:56:52.475Z,1.50
2017-09-19T17:59:23.319Z,1.40
2017-09-19T18:01:54.099Z,1.80
2017-09-19T18:04:24.316Z,1.40
2017-09-19T18:06:54.884Z,1.30
2017-09-19T18:09:25.228Z,1.60
2017-09-19T18:11:56.310Z,1.80
2017-09-19T18:14:28.909Z,1.37
2017-09-19T18:16:59.823Z,1.40
2017-09-19T18:19:31.247Z,1.50
2017-09-19T18:22:03.004Z,1.10
2017-09-19T18:24:41.072Z,1.30
2017-09-19T18:27:13.867Z,1.25
2017-09-19T18:29:46.481Z,1.60
2017-09-19T18:32:16.731Z,1.40
2017-09-19T18:34:47.033Z,1.77
2017-09-19T18:37:18.743Z,1.30
2017-09-19T18:39:49.533Z,1.30
2017-09-19T18:42:20.927Z,1.77
2017-09-19T18:44:51.562Z,1.50
2017-09-19T18:47:22.919Z,1.00
2017-09-19T18:49:54.550Z,1.50
2017-09-19T18:52:25.867Z,1.58
2017-09-19T18:54:58.621Z,1.00
2017-09-19T18:57:29.607Z,1.27
2017-09-19T19:00:04.134Z,1.50
2017-09-19T19:02:37.268Z,1.30
2017-09-19T19:05:09.827Z,0.90
2017-09-19T19:07:41.507Z,1.70
2017-09-19T19:10:13.529Z,1.30
2017-09-19T19:12:45.508Z,1.50
2017-09-19T19:15:16.191Z,1.25
2017-09-19T19:17:47.498Z,1.20
2017-09-19T19:20:19.082Z,1.37
2017-09-19T19:22:51.985Z,1.42
2017-09-19T19:25:27.327Z,1.30
2017-09-19T19:27:57.734Z,1.50
2017-09-19T19:30:30.701Z,1.70
2017-09-19T19:33:02.738Z,1.80
2017-09-19T19:35:33.284Z,2.10
2017-09-19T19:38:04.591Z,2.20
2017-09-19T19:40:35.466Z,2.12
2017-09-19T19:43:07.733Z,2.58
2017-09-19T19:45:38.752Z,1.90
2017-09-19T19:48:10.049Z,1.10
2017-09-19T19:50:40.480Z,1.20
2017-09-19T19:53:13.507Z,1.10
2017-09-19T19:55:43.975Z,1.05
2017-09-19T19:58:16.117Z,1.60
2017-09-19T20:00:46.995Z,1.50
2017-09-19T20:03:19.330Z,1.30
2017-09-19T20:05:50.610Z,2.20
2017-09-19T20:08:24.496Z,2.67
2017-09-19T20:10:54.668Z,3.00
2017-09-19T20:13:25.984Z,2.40
2017-09-19T20:15:56.847Z,2.50
2017-09-19T20:18:28.071Z,2.40
2017-09-19T20:20:58.527Z,2.45
2017-09-19T20:23:28.900Z,2.85
2017-09-19T20:26:00.169Z,2.90
2017-09-19T20:28:31.666Z,2.40
2017-09-19T20:31:03.432Z,2.80
2017-09-19T20:33:33.799Z,3.20
2017-09-19T20:36:03.619Z,2.83
2017-09-19T20:38:33.711Z,3.30
2017-09-19T20:41:03.523Z,3.30
2017-09-19T20:43:34.130Z,2.97
2017-09-19T20:46:05.466Z,2.87
2017-09-19T20:48:35.623Z,3.28
2017-09-19T20:51:05.291Z,2.30
2017-09-19T20:53:35.738Z,2.70
2017-09-19T20:56:05.870Z,1.42
2017-09-19T20:58:36.496Z,1.63
2017-09-19T21:01:08.727Z,1.50
2017-09-19T21:03:43.644Z,2.40
2017-09-19T21:06:19.493Z,2.05
2017-09-19T21:08:54.900Z,1.40
2017-09-19T21:11:30.679Z,1.60
2017-09-19T21:14:06.033Z,1.60
2017-09-19T21:16:41.115Z,2.12
2017-09-19T21:19:16.763Z,1.67
2017-09-19T21:21:46.845Z,2.40
2017-09-19T21:24:16.802Z,3.03
2017-09-19T21:26:46.553Z,3.28
2017-09-19T21:29:16.096Z,3.27
2017-09-19T21:31:46.406Z,3.47
2017-09-19T21:34:16.588Z,2.90
2017-09-19T21:36:46.790Z,3.30
2017-09-19T21:39:17.213Z,3.50
2017-09-19T21:41:47.843Z,3.43
2017-09-19T21:44:17.751Z,3.53
2017-09-19T21:46:48.216Z,4.30
2017-09-19T21:49:18.972Z,3.90
2017-09-19T21:51:48.857Z,3.60
2017-09-19T21:54:19.583Z,3.60
2017-09-19T21:56:49.731Z,3.70
2017-09-19T21:59:19.687Z,3.58
2017-09-19T22:01:50.270Z,3.37
2017-09-19T22:04:20.324Z,3.00
2017-09-19T22:06:51.971Z,3.10
2017-09-19T22:09:23.041Z,2.00
2017-09-19T22:11:53.202Z,2.00
2017-09-19T22:14:24.216Z,1.62
2017-09-19T22:16:55.024Z,1.73
2017-09-19T22:19:24.950Z,1.70
2017-09-19T22:21:55.466Z,1.87
2017-09-19T22:24:25.467Z,1.87
2017-09-19T22:26:55.424Z,1.48
2017-09-19T22:29:25.866Z,2.33
2017-09-19T22:31:56.788Z,1.87
2017-09-19T22:34:26.866Z,1.48
2017-09-19T22:36:57.255Z,1.62
2017-09-19T22:39:27.991Z,1.60
2017-09-19T22:41:58.741Z,1.40
2017-09-19T22:44:28.842Z,1.17
2017-09-19T22:46:58.632Z,1.40
2017-09-19T22:49:30.122Z,1.20
2017-09-19T22:52:00.635Z,1.60
2017-09-19T22:54:31.502Z,1.30
2017-09-19T22:57:01.487Z,1.20
2017-09-19T22:59:31.961Z,1.20
2017-09-19T23:02:01.826Z,1.50
2017-09-19T23:04:32.097Z,1.40
2017-09-19T23:07:02.111Z,1.40
2017-09-19T23:09:32.429Z,1.42
2017-09-19T23:12:03.042Z,1.52
2017-09-19T23:14:34.595Z,1.50
2017-09-19T23:17:05.967Z,1.35
2017-09-19T23:19:35.963Z,1.30
2017-09-19T23:22:06.470Z,1.33
2017-09-19T23:24:36.514Z,1.15
2017-09-19T23:27:08.893Z,1.10
2017-09-19T23:29:41.220Z,1.20
2017-09-19T23:32:12.111Z,1.30
2017-09-19T23:34:42.172Z,1.00
2017-09-19T23:37:12.808Z,1.20
2017-09-19T23:39:42.979Z,1.00
2017-09-19T23:42:13.423Z,1.33
2017-09-19T23:44:45.445Z,1.40
2017-09-19T23:47:16.931Z,1.52
2017-09-19T23:49:49.095Z,1.30
2017-09-19T23:52:20.971Z,1.60
2017-09-19T23:54:51.616Z,1.20
2017-09-19T23:57:22.314Z,1.10
2017-09-19T23:59:53.552Z,1.10
